createdAt,value
2018-07-25T00:01:41.302Z,7.70
2018-07-25T00:04:08.460Z,7.33
2018-07-25T00:06:35.588Z,7.10
2018-07-25T00:09:03.084Z,7.20
2018-07-25T00:11:30.256Z,7.30
2018-07-25T00:13:57.404Z,7.13
2018-07-25T00:16:24.572Z,7.80
2018-07-25T00:18:51.835Z,7.40
2018-07-25T00:21:18.962Z,7.03
2018-07-25T00:23:46.075Z,6.90
2018-07-25T00:26:13.315Z,6.97
2018-07-25T00:28:40.425Z,6.60
2018-07-25T00:31:07.546Z,7.00
2018-07-25T00:33:34.699Z,7.00
2018-07-25T00:36:01.873Z,7.70
2018-07-25T00:38:28.986Z,7.13
2018-07-25T00:40:56.179Z,7.07
2018-07-25T00:43:23.295Z,7.17
2018-07-25T00:45:50.424Z,7.77
2018-07-25T00:48:17.675Z,7.30
2018-07-25T00:50:44.796Z,7.37
2018-07-25T00:53:11.932Z,8.10
2018-07-25T00:55:39.190Z,7.50
2018-07-25T00:58:06.343Z,7.47
2018-07-25T01:00:33.502Z,7.67
2018-07-25T01:03:00.668Z,7.00
2018-07-25T01:05:27.821Z,7.70
2018-07-25T01:07:54.933Z,7.87
2018-07-25T01:10:22.115Z,9.10
2018-07-25T01:12:49.249Z,7.67
2018-07-25T01:15:16.385Z,7.40
2018-07-25T01:17:43.532Z,6.87
2018-07-25T01:20:10.656Z,7.97
2018-07-25T01:22:37.816Z,7.63
2018-07-25T01:25:05.040Z,7.77
2018-07-25T01:27:32.200Z,7.70
2018-07-25T01:29:59.313Z,8.07
2018-07-25T01:32:26.519Z,7.57
2018-07-25T01:34:53.656Z,7.87
2018-07-25T01:37:20.794Z,7.90
2018-07-25T01:39:48.013Z,7.67
2018-07-25T01:42:15.110Z,7.27
2018-07-25T01:44:42.222Z,6.93
2018-07-25T01:47:09.386Z,8.00
2018-07-25T01:49:36.519Z,8.00
2018-07-25T01:52:03.690Z,7.97
2018-07-25T01:54:30.877Z,7.97
2018-07-25T01:56:58.023Z,7.97
2018-07-25T01:59:27.312Z,9.67
2018-07-25T02:01:55.200Z,8.23
2018-07-25T02:04:22.317Z,8.40
2018-07-25T02:06:49.446Z,8.60
2018-07-25T02:09:16.621Z,8.13
2018-07-25T02:11:43.794Z,8.20
2018-07-25T02:14:10.913Z,8.37
2018-07-25T02:16:38.147Z,8.77
2018-07-25T02:19:05.276Z,8.50
2018-07-25T02:21:32.436Z,8.77
2018-07-25T02:23:59.667Z,9.13
2018-07-25T02:26:26.800Z,8.53
2018-07-25T02:28:53.923Z,8.33
2018-07-25T02:31:21.067Z,8.67
2018-07-25T02:33:53.915Z,10.87
2018-07-25T02:36:21.203Z,12.00
2018-07-25T02:38:48.336Z,8.60
2018-07-25T02:41:15.461Z,8.37
2018-07-25T02:43:42.803Z,8.60
2018-07-25T02:46:09.933Z,10.37
2018-07-25T02:48:37.029Z,9.40
2018-07-25T02:51:04.216Z,9.17
2018-07-25T02:53:31.350Z,11.63
2018-07-25T02:55:58.536Z,10.90
2018-07-25T02:58:25.947Z,8.50
2018-07-25T03:00:53.081Z,9.20
2018-07-25T03:03:20.193Z,9.13
2018-07-25T03:05:47.356Z,10.77
2018-07-25T03:08:14.574Z,10.23
2018-07-25T03:10:47.419Z,8.20
2018-07-25T03:13:14.583Z,9.30
2018-07-25T03:15:41.680Z,10.63
2018-07-25T03:18:08.869Z,13.80
2018-07-25T03:20:36.015Z,8.37
2018-07-25T03:23:03.195Z,10.30
2018-07-25T03:25:30.383Z,7.97
2018-07-25T03:27:57.498Z,9.50
2018-07-25T03:30:24.660Z,8.70
2018-07-25T03:32:51.902Z,8.67
2018-07-25T03:35:19.034Z,9.47
2018-07-25T03:37:46.198Z,8.97
2018-07-25T03:40:13.448Z,9.47
2018-07-25T03:42:40.579Z,8.63
2018-07-25T03:45:07.717Z,8.50
2018-07-25T03:47:34.868Z,8.77
2018-07-25T03:50:01.997Z,8.40
2018-07-25T03:52:29.098Z,8.83
2018-07-25T03:54:56.268Z,11.60
2018-07-25T03:57:23.386Z,11.30
2018-07-25T03:59:50.518Z,10.37
2018-07-25T04:02:17.700Z,8.60
2018-07-25T04:04:44.888Z,9.20
2018-07-25T04:07:12.072Z,8.97
2018-07-25T04:09:39.325Z,8.07
2018-07-25T04:12:06.424Z,9.20
2018-07-25T04:14:33.634Z,9.50
2018-07-25T04:17:00.787Z,8.43
2018-07-25T04:19:27.912Z,9.10
2018-07-25T04:21:55.050Z,8.70
2018-07-25T04:24:22.194Z,9.33
2018-07-25T04:26:49.311Z,9.10
2018-07-25T04:29:16.423Z,8.63
2018-07-25T04:31:43.721Z,8.40
2018-07-25T04:34:10.852Z,8.90
2018-07-25T04:36:38.052Z,8.60
2018-07-25T04:39:07.487Z,8.53
2018-07-25T04:41:34.636Z,9.20
2018-07-25T04:44:01.799Z,7.73
2018-07-25T04:46:29.004Z,7.83
2018-07-25T04:48:56.128Z,8.13
2018-07-25T04:51:23.241Z,9.10
2018-07-25T04:53:50.435Z,7.90
2018-07-25T04:56:17.561Z,8.40
2018-07-25T04:58:44.708Z,8.03
2018-07-25T05:01:11.888Z,10.10
2018-07-25T05:03:39.021Z,8.07
2018-07-25T05:06:06.139Z,11.20
2018-07-25T05:08:33.313Z,9.67
2018-07-25T05:11:00.434Z,10.37
2018-07-25T05:13:28.033Z,11.60
2018-07-25T05:15:55.350Z,7.93
2018-07-25T05:18:25.482Z,9.23
2018-07-25T05:20:52.603Z,7.30
2018-07-25T05:23:19.892Z,7.83
2018-07-25T05:25:47.032Z,7.30
2018-07-25T05:28:14.186Z,6.63
2018-07-25T05:30:41.440Z,11.60
2018-07-25T05:33:08.600Z,7.10
2018-07-25T05:35:35.701Z,7.10
2018-07-25T05:38:03.042Z,6.47
2018-07-25T05:40:30.117Z,6.43
2018-07-25T05:42:57.252Z,6.80
2018-07-25T05:45:24.443Z,6.83
2018-07-25T05:47:52.417Z,6.43
2018-07-25T05:50:19.518Z,6.77
2018-07-25T05:52:46.688Z,7.17
2018-07-25T05:55:13.798Z,7.37
2018-07-25T05:57:40.960Z,7.10
2018-07-25T06:00:08.173Z,6.07
2018-07-25T06:02:35.315Z,5.93
2018-07-25T06:05:02.460Z,8.10
2018-07-25T06:07:29.657Z,6.23
2018-07-25T06:09:56.799Z,6.97
2018-07-25T06:12:23.936Z,7.57
2018-07-25T06:14:51.092Z,5.80
2018-07-25T06:17:18.317Z,7.73
2018-07-25T06:19:45.465Z,6.33
2018-07-25T06:22:12.629Z,7.00
2018-07-25T06:24:39.774Z,6.20
2018-07-25T06:27:06.968Z,6.50
2018-07-25T06:29:34.146Z,6.97
2018-07-25T06:32:01.306Z,6.13
2018-07-25T06:34:28.415Z,6.87
2018-07-25T06:36:55.700Z,5.60
2018-07-25T06:39:22.843Z,8.00
2018-07-25T06:41:49.962Z,5.50
2018-07-25T06:44:17.110Z,8.27
2018-07-25T06:46:44.225Z,7.67
2018-07-25T06:49:11.371Z,5.90
2018-07-25T06:51:38.602Z,7.17
2018-07-25T06:54:06.345Z,5.67
2018-07-25T06:56:33.469Z,5.67
2018-07-25T06:59:00.642Z,6.83
2018-07-25T07:01:28.369Z,9.80
2018-07-25T07:03:55.501Z,5.17
2018-07-25T07:06:22.855Z,9.20
2018-07-25T07:08:49.990Z,5.10
2018-07-25T07:11:17.108Z,9.93
2018-07-25T07:13:44.264Z,5.17
2018-07-25T07:16:11.444Z,6.20
2018-07-25T07:18:38.688Z,5.87
2018-07-25T07:21:05.875Z,8.43
2018-07-25T07:23:33.003Z,5.17
2018-07-25T07:26:00.120Z,6.63
2018-07-25T07:28:27.283Z,7.70
2018-07-25T07:30:54.435Z,7.57
2018-07-25T07:33:21.578Z,8.00
2018-07-25T07:35:48.790Z,6.97
2018-07-25T07:38:15.916Z,8.83
2018-07-25T07:40:43.045Z,7.53
2018-07-25T07:43:10.313Z,6.37
2018-07-25T07:45:37.482Z,6.73
2018-07-25T07:48:04.672Z,7.43
2018-07-25T07:50:31.868Z,9.77
2018-07-25T07:52:59.008Z,7.57
2018-07-25T07:55:26.125Z,4.90
2018-07-25T07:57:53.315Z,7.50
2018-07-25T08:00:20.445Z,5.10
2018-07-25T08:02:47.615Z,9.40
2018-07-25T08:05:14.836Z,8.07
2018-07-25T08:07:41.978Z,7.07
2018-07-25T08:10:09.116Z,7.43
2018-07-25T08:12:36.313Z,6.60
2018-07-25T08:15:03.935Z,5.07
2018-07-25T08:17:31.079Z,5.80
2018-07-25T08:19:58.335Z,7.13
2018-07-25T08:22:25.454Z,5.63
2018-07-25T08:24:52.620Z,7.07
2018-07-25T08:27:19.815Z,6.23
2018-07-25T08:29:47.005Z,6.10
2018-07-25T08:32:15.848Z,7.37
2018-07-25T08:34:43.026Z,6.37
2018-07-25T08:37:10.115Z,4.70
2018-07-25T08:39:37.239Z,4.50
2018-07-25T08:42:04.561Z,4.43
2018-07-25T08:44:31.708Z,5.03
2018-07-25T08:46:58.815Z,8.77
2018-07-25T08:49:25.993Z,6.83
2018-07-25T08:51:53.148Z,7.10
2018-07-25T08:54:20.266Z,6.97
2018-07-25T08:56:47.449Z,3.33
2018-07-25T08:59:14.608Z,7.53
2018-07-25T09:01:41.804Z,4.60
2018-07-25T09:04:08.980Z,6.90
2018-07-25T09:06:36.100Z,5.87
2018-07-25T09:09:05.734Z,4.47
2018-07-25T09:11:35.160Z,4.07
2018-07-25T09:14:02.515Z,3.73
2018-07-25T09:16:30.076Z,3.70
2018-07-25T09:18:57.394Z,5.23
2018-07-25T09:21:24.556Z,5.20
2018-07-25T09:23:51.671Z,3.63
2018-07-25T09:26:18.839Z,4.20
2018-07-25T09:28:46.100Z,5.17
2018-07-25T09:31:13.282Z,4.37
2018-07-25T09:33:40.601Z,3.00
2018-07-25T09:36:07.735Z,5.87
2018-07-25T09:38:34.864Z,4.80
2018-07-25T09:41:02.241Z,4.83
2018-07-25T09:43:29.445Z,4.23
2018-07-25T09:45:56.599Z,3.93
2018-07-25T09:48:23.790Z,2.97
2018-07-25T09:50:50.969Z,3.87
2018-07-25T09:53:18.112Z,3.50
2018-07-25T09:55:45.328Z,6.63
2018-07-25T09:58:12.512Z,7.07
2018-07-25T10:00:45.341Z,6.67
2018-07-25T10:03:12.512Z,6.77
2018-07-25T10:05:39.664Z,2.92
2018-07-25T10:08:06.872Z,6.67
2018-07-25T10:10:34.012Z,5.10
2018-07-25T10:13:01.168Z,3.45
2018-07-25T10:15:28.336Z,4.92
2018-07-25T10:17:55.446Z,3.75
2018-07-25T10:20:22.600Z,3.75
2018-07-25T10:22:49.923Z,4.03
2018-07-25T10:25:17.103Z,4.30
2018-07-25T10:27:44.232Z,3.65
2018-07-25T10:30:11.453Z,4.05
2018-07-25T10:32:38.651Z,3.90
2018-07-25T10:35:05.861Z,5.55
2018-07-25T10:37:33.062Z,3.52
2018-07-25T10:40:00.193Z,3.05
2018-07-25T10:42:27.382Z,5.42
2018-07-25T10:44:54.543Z,4.60
2018-07-25T10:47:21.790Z,3.10
2018-07-25T10:49:48.962Z,4.22
2018-07-25T10:52:16.262Z,5.58
2018-07-25T10:54:43.460Z,3.50
2018-07-25T10:57:10.626Z,3.98
2018-07-25T10:59:37.880Z,3.55
2018-07-25T11:02:05.058Z,5.22
2018-07-25T11:04:32.190Z,3.72
2018-07-25T11:06:59.372Z,3.20
2018-07-25T11:09:26.507Z,2.85
2018-07-25T11:11:53.636Z,5.42
2018-07-25T11:14:20.806Z,2.17
2018-07-25T11:16:47.971Z,2.30
2018-07-25T11:19:15.110Z,5.45
2018-07-25T11:21:42.302Z,3.45
2018-07-25T11:24:09.521Z,5.20
2018-07-25T11:26:36.672Z,3.80
2018-07-25T11:29:03.927Z,3.58
2018-07-25T11:31:31.042Z,3.30
2018-07-25T11:33:58.164Z,4.37
2018-07-25T11:36:25.378Z,2.30
2018-07-25T11:38:52.564Z,3.08
2018-07-25T11:41:19.689Z,5.72
2018-07-25T11:43:46.919Z,4.65
2018-07-25T11:46:14.057Z,14.47
2018-07-25T11:48:41.232Z,5.10
2018-07-25T11:51:08.472Z,5.45
2018-07-25T11:53:35.591Z,7.67
2018-07-25T11:56:02.798Z,5.03
2018-07-25T11:58:30.064Z,2.55
2018-07-25T12:00:57.236Z,3.15
2018-07-25T12:03:24.380Z,4.72
2018-07-25T12:05:51.539Z,2.85
2018-07-25T12:08:18.665Z,3.15
2018-07-25T12:10:45.824Z,3.58
2018-07-25T12:13:13.045Z,4.67
2018-07-25T12:15:40.289Z,3.42
2018-07-25T12:18:07.475Z,4.08
2018-07-25T12:20:34.709Z,3.90
2018-07-25T12:23:01.856Z,3.95
2018-07-25T12:25:29.092Z,2.62
2018-07-25T12:27:56.293Z,3.45
2018-07-25T12:30:23.463Z,3.40
2018-07-25T12:32:50.625Z,3.25
2018-07-25T12:35:17.793Z,2.40
2018-07-25T12:37:44.960Z,3.45
2018-07-25T12:40:12.106Z,2.58
2018-07-25T12:42:39.442Z,3.05
2018-07-25T12:45:06.576Z,3.67
2018-07-25T12:47:33.720Z,3.77
2018-07-25T12:50:00.981Z,2.30
2018-07-25T12:52:28.121Z,5.50
2018-07-25T12:54:55.248Z,2.87
2018-07-25T12:57:22.459Z,3.02
2018-07-25T12:59:49.608Z,3.90
2018-07-25T13:02:16.769Z,4.60
2018-07-25T13:04:44.023Z,3.40
2018-07-25T13:07:11.155Z,5.37
2018-07-25T13:09:38.355Z,2.98
2018-07-25T13:12:05.571Z,4.42
2018-07-25T13:14:32.727Z,3.47
2018-07-25T13:16:59.923Z,4.37
2018-07-25T13:19:27.132Z,2.98
2018-07-25T13:21:54.318Z,2.85
2018-07-25T13:24:21.508Z,3.08
2018-07-25T13:26:48.721Z,4.03
2018-07-25T13:29:15.851Z,4.05
2018-07-25T13:31:43.004Z,6.10
2018-07-25T13:34:10.196Z,3.27
2018-07-25T13:36:37.625Z,2.92
2018-07-25T13:39:06.519Z,5.28
2018-07-25T13:41:34.280Z,3.90
2018-07-25T13:44:01.416Z,3.83
2018-07-25T13:46:28.634Z,2.70
2018-07-25T13:48:55.830Z,3.02
2018-07-25T13:51:22.989Z,2.52
2018-07-25T13:53:50.137Z,2.40
2018-07-25T13:56:17.345Z,2.72
2018-07-25T13:58:44.496Z,4.00
2018-07-25T14:01:11.665Z,3.92
2018-07-25T14:03:38.891Z,3.58
2018-07-25T14:06:06.089Z,3.05
2018-07-25T14:08:33.212Z,5.50
2018-07-25T14:11:00.478Z,2.83
2018-07-25T14:13:27.634Z,4.60
2018-07-25T14:15:55.096Z,4.03
2018-07-25T14:18:22.291Z,4.12
2018-07-25T14:20:49.453Z,4.97
2018-07-25T14:23:16.970Z,2.60
2018-07-25T14:25:44.211Z,3.70
2018-07-25T14:28:11.481Z,3.08
2018-07-25T14:30:38.797Z,2.77
2018-07-25T14:33:05.965Z,3.75
2018-07-25T14:35:33.141Z,6.45
2018-07-25T14:38:00.311Z,3.83
2018-07-25T14:40:27.604Z,2.45
2018-07-25T14:42:54.739Z,2.60
2018-07-25T14:45:21.883Z,2.75
2018-07-25T14:47:49.240Z,4.10
2018-07-25T14:50:16.406Z,3.45
2018-07-25T14:52:43.573Z,4.75
2018-07-25T14:55:10.782Z,2.35
2018-07-25T14:57:38.140Z,2.55
2018-07-25T15:00:05.995Z,4.55
2018-07-25T15:02:33.391Z,3.80
2018-07-25T15:05:00.540Z,3.37
2018-07-25T15:07:27.676Z,3.25
2018-07-25T15:09:54.869Z,3.10
2018-07-25T15:12:27.800Z,3.70
2018-07-25T15:14:55.069Z,2.85
2018-07-25T15:17:22.201Z,2.42
2018-07-25T15:19:49.340Z,4.30
2018-07-25T15:22:16.569Z,3.70
2018-07-25T15:24:44.190Z,2.40
2018-07-25T15:27:11.702Z,4.60
2018-07-25T15:29:38.953Z,3.12
2018-07-25T15:32:06.119Z,2.10
2018-07-25T15:34:33.253Z,3.17
2018-07-25T15:37:00.461Z,2.02
2018-07-25T15:39:27.622Z,3.35
2018-07-25T15:41:56.073Z,3.67
2018-07-25T15:44:24.280Z,3.08
2018-07-25T15:46:51.484Z,2.62
2018-07-25T15:49:18.627Z,2.62
2018-07-25T15:51:45.881Z,2.92
2018-07-25T15:54:13.060Z,2.47
2018-07-25T15:56:40.225Z,2.17
2018-07-25T15:59:07.673Z,2.47
2018-07-25T16:01:34.883Z,2.67
2018-07-25T16:04:02.045Z,2.58
2018-07-25T16:06:29.236Z,3.70
2018-07-25T16:08:56.394Z,2.30
2018-07-25T16:11:23.958Z,3.22
2018-07-25T16:13:51.235Z,3.72
2018-07-25T16:16:19.002Z,2.20
2018-07-25T16:18:46.466Z,5.58
2018-07-25T16:21:13.784Z,3.17
2018-07-25T16:23:40.968Z,3.22
2018-07-25T16:26:08.164Z,2.80
2018-07-25T16:28:35.464Z,2.02
2018-07-25T16:31:02.871Z,2.45
2018-07-25T16:33:30.036Z,2.42
2018-07-25T16:35:57.354Z,2.75
2018-07-25T16:38:24.526Z,3.67
2018-07-25T16:40:51.714Z,3.42
2018-07-25T16:43:19.000Z,3.35
2018-07-25T16:45:46.701Z,2.92
2018-07-25T16:48:14.270Z,3.35
2018-07-25T16:50:41.479Z,4.25
2018-07-25T16:53:08.623Z,3.55
2018-07-25T16:55:35.801Z,2.58
2018-07-25T16:58:03.016Z,3.25
2018-07-25T17:00:30.178Z,5.67
2018-07-25T17:02:57.448Z,3.98
2018-07-25T17:05:24.645Z,3.77
2018-07-25T17:07:51.888Z,2.87
2018-07-25T17:10:18.998Z,4.95
2018-07-25T17:12:46.293Z,2.80
2018-07-25T17:15:13.448Z,3.62
2018-07-25T17:17:40.591Z,4.92
2018-07-25T17:20:07.863Z,2.87
2018-07-25T17:22:35.025Z,4.33
2018-07-25T17:25:02.260Z,3.55
2018-07-25T17:27:29.501Z,3.15
2018-07-25T17:29:56.654Z,4.28
2018-07-25T17:32:23.872Z,3.03
2018-07-25T17:34:51.141Z,2.60
2018-07-25T17:37:18.296Z,3.80
2018-07-25T17:39:45.625Z,2.87
2018-07-25T17:42:12.884Z,4.20
2018-07-25T17:44:40.038Z,4.77
2018-07-25T17:47:07.217Z,3.83
2018-07-25T17:49:34.473Z,7.53
2018-07-25T17:52:01.701Z,3.87
2018-07-25T17:54:28.952Z,3.40
2018-07-25T17:56:56.325Z,3.57
2018-07-25T17:59:23.396Z,3.10
2018-07-25T18:01:50.568Z,2.80
2018-07-25T18:04:17.781Z,6.10
2018-07-25T18:06:44.959Z,4.70
2018-07-25T18:09:12.164Z,2.80
2018-07-25T18:11:39.473Z,4.37
2018-07-25T18:14:11.497Z,3.37
2018-07-25T18:16:39.929Z,3.50
2018-07-25T18:19:07.113Z,2.57
2018-07-25T18:21:34.299Z,3.00
2018-07-25T18:24:01.532Z,6.70
2018-07-25T18:26:28.693Z,2.57
2018-07-25T18:28:55.888Z,5.40
2018-07-25T18:31:23.194Z,4.03
2018-07-25T18:33:50.400Z,3.53
2018-07-25T18:36:17.586Z,3.00
2018-07-25T18:38:44.978Z,5.27
2018-07-25T18:41:12.207Z,4.77
2018-07-25T18:43:39.374Z,6.47
2018-07-25T18:46:06.712Z,5.17
2018-07-25T18:48:33.903Z,5.03
2018-07-25T18:51:01.041Z,3.70
2018-07-25T18:53:28.283Z,6.97
2018-07-25T18:55:55.437Z,3.73
2018-07-25T18:58:22.603Z,6.30
2018-07-25T19:00:49.832Z,3.97
2018-07-25T19:03:16.983Z,8.97
2018-07-25T19:05:44.101Z,4.83
2018-07-25T19:08:11.292Z,7.70
2018-07-25T19:10:38.445Z,5.90
2018-07-25T19:13:11.188Z,5.77
2018-07-25T19:15:38.357Z,5.27
2018-07-25T19:18:05.505Z,6.10
2018-07-25T19:20:32.676Z,4.37
2018-07-25T19:22:59.822Z,4.23
2018-07-25T19:25:26.987Z,5.47
2018-07-25T19:27:54.173Z,5.53
2018-07-25T19:30:21.429Z,5.03
2018-07-25T19:32:49.061Z,4.50
2018-07-25T19:35:16.319Z,4.20
2018-07-25T19:37:43.444Z,6.17
2018-07-25T19:40:10.575Z,4.20
2018-07-25T19:42:37.750Z,6.23
2018-07-25T19:45:04.907Z,4.87
2018-07-25T19:47:32.052Z,4.53
2018-07-25T19:49:59.222Z,4.30
2018-07-25T19:52:26.337Z,4.37
2018-07-25T19:54:53.863Z,4.57
2018-07-25T19:57:21.117Z,5.50
2018-07-25T19:59:48.479Z,5.73
2018-07-25T20:02:15.591Z,5.03
2018-07-25T20:04:42.759Z,4.93
2018-07-25T20:07:09.969Z,4.93
2018-07-25T20:09:37.051Z,5.80
2018-07-25T20:12:04.238Z,5.87
2018-07-25T20:14:37.181Z,4.83
2018-07-25T20:17:04.458Z,5.33
2018-07-25T20:19:31.541Z,4.50
2018-07-25T20:21:58.681Z,4.63
2018-07-25T20:24:25.859Z,5.80
2018-07-25T20:26:52.996Z,6.70
2018-07-25T20:29:20.167Z,5.63
2018-07-25T20:31:47.370Z,5.77
2018-07-25T20:34:14.518Z,5.63
2018-07-25T20:36:41.720Z,5.43
2018-07-25T20:39:10.656Z,5.17
2018-07-25T20:41:37.877Z,6.20
2018-07-25T20:44:05.097Z,5.10
2018-07-25T20:46:32.289Z,6.87
2018-07-25T20:48:59.448Z,8.33
2018-07-25T20:51:26.615Z,5.40
2018-07-25T20:53:53.773Z,5.67
2018-07-25T20:56:20.949Z,6.73
2018-07-25T20:58:48.067Z,5.80
2018-07-25T21:01:15.243Z,5.80
2018-07-25T21:03:42.360Z,7.37
2018-07-25T21:06:09.504Z,6.50
2018-07-25T21:08:36.692Z,6.60
2018-07-25T21:11:03.895Z,6.97
2018-07-25T21:13:31.016Z,6.40
2018-07-25T21:15:58.212Z,6.07
2018-07-25T21:18:25.452Z,6.60
2018-07-25T21:20:52.562Z,7.87
2018-07-25T21:23:19.740Z,6.73
2018-07-25T21:25:46.907Z,7.10
2018-07-25T21:28:14.048Z,7.00
2018-07-25T21:30:41.255Z,6.80
2018-07-25T21:33:08.486Z,7.53
2018-07-25T21:35:35.595Z,6.90
2018-07-25T21:38:02.836Z,7.13
2018-07-25T21:40:29.996Z,9.47
2018-07-25T21:42:57.107Z,6.90
2018-07-25T21:45:24.275Z,7.63
2018-07-25T21:47:51.408Z,7.20
2018-07-25T21:50:18.551Z,6.83
2018-07-25T21:52:45.736Z,6.87
2018-07-25T21:55:12.848Z,8.97
2018-07-25T21:57:39.966Z,7.40
2018-07-25T22:00:11.916Z,8.23
2018-07-25T22:02:39.045Z,7.37
2018-07-25T22:05:06.196Z,6.70
2018-07-25T22:07:33.382Z,6.30
2018-07-25T22:10:00.499Z,6.93
2018-07-25T22:12:27.609Z,7.30
2018-07-25T22:14:54.760Z,6.80
2018-07-25T22:17:21.945Z,6.50
2018-07-25T22:19:49.096Z,6.63
2018-07-25T22:22:16.426Z,7.93
2018-07-25T22:24:43.555Z,6.87
2018-07-25T22:27:10.671Z,6.90
2018-07-25T22:29:37.855Z,7.03
2018-07-25T22:32:05.047Z,8.27
2018-07-25T22:34:32.171Z,6.50
2018-07-25T22:36:59.375Z,6.70
2018-07-25T22:39:26.591Z,7.13
2018-07-25T22:41:55.306Z,7.20
2018-07-25T22:44:22.517Z,6.53
2018-07-25T22:46:49.653Z,6.70
2018-07-25T22:49:16.781Z,7.40
2018-07-25T22:51:43.932Z,6.87
2018-07-25T22:54:11.024Z,6.70
2018-07-25T22:56:38.121Z,7.20
2018-07-25T22:59:05.365Z,6.47
2018-07-25T23:01:32.511Z,7.27
2018-07-25T23:03:59.653Z,7.57
2018-07-25T23:06:26.908Z,6.43
2018-07-25T23:08:54.024Z,6.53
2018-07-25T23:11:21.129Z,6.37
2018-07-25T23:13:48.281Z,6.63
2018-07-25T23:16:16.581Z,6.20
2018-07-25T23:18:44.112Z,6.03
2018-07-25T23:21:11.313Z,6.47
2018-07-25T23:23:38.492Z,6.67
2018-07-25T23:26:05.601Z,6.30
2018-07-25T23:28:32.848Z,7.27
2018-07-25T23:30:59.967Z,7.33
2018-07-25T23:33:27.101Z,5.47
2018-07-25T23:35:54.267Z,5.10
2018-07-25T23:38:21.428Z,5.83
2018-07-25T23:40:48.631Z,5.80
2018-07-25T23:43:15.815Z,5.37
2018-07-25T23:45:43.019Z,5.40
2018-07-25T23:48:10.152Z,6.47
2018-07-25T23:50:37.325Z,5.33
2018-07-25T23:53:04.521Z,5.80
2018-07-25T23:55:31.661Z,5.73
2018-07-25T23:57:58.913Z,5.63
